sensor_id;sensor_type;location;lat;lon;timestamp;pressure;altitude;pressure_sealevel;temperature;humidity
70133;BME280;57495;49.922;7.966;2023-08-06T00:01:25;99003.50;;;16.02;100.00
70133;BME280;57495;49.922;7.966;2023-08-06T00:03:27;98998.53;;;15.99;100.00
70133;BME280;57495;49.922;7.966;2023-08-06T00:05:27;98996.88;;;15.92;100.00
70133;BME280;57495;49.922;7.966;2023-08-06T00:07:29;98994.38;;;15.97;100.00
70133;BME280;57495;49.922;7.966;2023-08-06T00:09:30;98986.91;;;15.99;100.00
70133;BME280;57495;49.922;7.966;2023-08-06T00:11:31;98986.91;;;15.99;100.00
70133;BME280;57495;49.922;7.966;2023-08-06T00:13:34;98987.34;;;15.96;100.00
70133;BME280;57495;49.922;7.966;2023-08-06T00:15:36;98984.44;;;15.97;100.00
70133;BME280;57495;49.922;7.966;2023-08-06T00:17:37;98976.13;;;15.99;100.00
70133;BME280;57495;49.922;7.966;2023-08-06T00:19:39;98980.69;;;15.98;100.00
70133;BME280;57495;49.922;7.966;2023-08-06T00:21:40;98983.78;;;15.95;100.00
70133;BME280;57495;49.922;7.966;2023-08-06T00:23:42;98978.38;;;15.95;100.00
70133;BME280;57495;49.922;7.966;2023-08-06T00:25:43;98969.09;;;15.98;100.00
70133;BME280;57495;49.922;7.966;2023-08-06T00:27:44;98970.31;;;15.95;100.00
70133;BME280;57495;49.922;7.966;2023-08-06T00:29:46;98965.13;;;16.00;100.00
70133;BME280;57495;49.922;7.966;2023-08-06T00:31:47;98963.88;;;15.96;100.00
70133;BME280;57495;49.922;7.966;2023-08-06T00:33:49;98959.53;;;16.02;100.00
70133;BME280;57495;49.922;7.966;2023-08-06T00:35:51;98951.66;;;15.94;100.00
70133;BME280;57495;49.922;7.966;2023-08-06T00:37:52;98957.91;;;16.01;100.00
70133;BME280;57495;49.922;7.966;2023-08-06T00:39:54;98947.31;;;15.99;100.00
70133;BME280;57495;49.922;7.966;2023-08-06T00:41:55;98954.97;;;16.02;100.00
70133;BME280;57495;49.922;7.966;2023-08-06T00:43:58;98948.97;;;15.94;100.00
70133;BME280;57495;49.922;7.966;2023-08-06T00:46:01;98950.81;;;15.93;100.00
70133;BME280;57495;49.922;7.966;2023-08-06T00:48:04;98944.56;;;15.79;100.00
70133;BME280;57495;49.922;7.966;2023-08-06T00:50:07;98936.66;;;15.78;100.00
70133;BME280;57495;49.922;7.966;2023-08-06T00:52:09;98938.75;;;15.76;100.00
70133;BME280;57495;49.922;7.966;2023-08-06T00:54:11;98931.88;;;15.73;100.00
70133;BME280;57495;49.922;7.966;2023-08-06T00:56:12;98936.38;;;15.59;100.00
70133;BME280;57495;49.922;7.966;2023-08-06T00:58:15;98936.59;;;15.64;100.00
70133;BME280;57495;49.922;7.966;2023-08-06T01:00:17;98937.63;;;15.63;100.00
70133;BME280;57495;49.922;7.966;2023-08-06T01:02:20;98934.50;;;15.53;100.00
70133;BME280;57495;49.922;7.966;2023-08-06T01:04:22;98937.78;;;15.42;100.00
70133;BME280;57495;49.922;7.966;2023-08-06T01:06:32;98928.66;;;15.43;100.00
70133;BME280;57495;49.922;7.966;2023-08-06T01:08:44;98928.88;;;15.48;100.00
70133;BME280;57495;49.922;7.966;2023-08-06T01:10:55;98924.34;;;15.55;100.00
70133;BME280;57495;49.922;7.966;2023-08-06T01:13:07;98929.06;;;15.40;100.00
70133;BME280;57495;49.922;7.966;2023-08-06T01:15:15;98927.44;;;15.45;100.00
70133;BME280;57495;49.922;7.966;2023-08-06T01:17:21;98918.06;;;15.35;100.00
70133;BME280;57495;49.922;7.966;2023-08-06T01:19:26;98915.81;;;15.45;100.00
70133;BME280;57495;49.922;7.966;2023-08-06T01:21:29;98921.63;;;15.42;100.00
70133;BME280;57495;49.922;7.966;2023-08-06T01:23:30;98914.59;;;15.48;100.00
70133;BME280;57495;49.922;7.966;2023-08-06T01:25:34;98914.31;;;15.36;100.00
70133;BME280;57495;49.922;7.966;2023-08-06T01:27:43;98912.47;;;15.43;100.00
70133;BME280;57495;49.922;7.966;2023-08-06T01:29:49;98912.63;;;15.28;100.00
70133;BME280;57495;49.922;7.966;2023-08-06T01:31:53;98910.84;;;15.42;100.00
70133;BME280;57495;49.922;7.966;2023-08-06T01:33:58;98910.03;;;15.48;100.00
70133;BME280;57495;49.922;7.966;2023-08-06T01:36:01;98897.75;;;15.39;100.00
70133;BME280;57495;49.922;7.966;2023-08-06T01:38:04;98900.44;;;15.39;100.00
70133;BME280;57495;49.922;7.966;2023-08-06T01:40:08;98890.06;;;15.36;100.00
70133;BME280;57495;49.922;7.966;2023-08-06T01:42:11;98886.31;;;15.30;100.00
70133;BME280;57495;49.922;7.966;2023-08-06T01:44:12;98884.41;;;15.17;100.00
70133;BME280;57495;49.922;7.966;2023-08-06T01:46:13;98878.00;;;15.18;100.00
70133;BME280;57495;49.922;7.966;2023-08-06T01:48:15;98882.34;;;15.19;100.00
70133;BME280;57495;49.922;7.966;2023-08-06T01:50:16;98881.50;;;15.12;100.00
70133;BME280;57495;49.922;7.966;2023-08-06T01:52:18;98880.06;;;15.16;100.00
70133;BME280;57495;49.922;7.966;2023-08-06T01:54:20;98867.19;;;15.05;100.00
70133;BME280;57495;49.922;7.966;2023-08-06T01:56:23;98869.25;;;15.03;100.00
70133;BME280;57495;49.922;7.966;2023-08-06T01:58:24;98861.09;;;14.89;100.00
70133;BME280;57495;49.922;7.966;2023-08-06T02:00:25;98871.22;;;14.87;100.00
70133;BME280;57495;49.922;7.966;2023-08-06T02:02:28;98872.47;;;14.92;100.00
70133;BME280;57495;49.922;7.966;2023-08-06T02:04:29;98868.78;;;14.93;100.00
70133;BME280;57495;49.922;7.966;2023-08-06T02:06:30;98872.13;;;15.01;100.00
70133;BME280;57495;49.922;7.966;2023-08-06T02:08:32;98872.16;;;15.08;100.00
70133;BME280;57495;49.922;7.966;2023-08-06T02:10:35;98873.81;;;15.09;100.00
70133;BME280;57495;49.922;7.966;2023-08-06T02:12:36;98882.91;;;15.08;100.00
70133;BME280;57495;49.922;7.966;2023-08-06T02:14:37;98879.44;;;15.14;100.00
70133;BME280;57495;49.922;7.966;2023-08-06T02:16:38;98881.72;;;15.17;100.00
70133;BME280;57495;49.922;7.966;2023-08-06T02:18:39;98880.94;;;15.23;100.00
70133;BME280;57495;49.922;7.966;2023-08-06T02:20:41;98884.41;;;15.11;100.00
70133;BME280;57495;49.922;7.966;2023-08-06T02:22:41;98877.13;;;15.11;100.00
70133;BME280;57495;49.922;7.966;2023-08-06T02:24:43;98876.03;;;14.92;100.00
70133;BME280;57495;49.922;7.966;2023-08-06T02:26:45;98878.72;;;14.99;100.00
70133;BME280;57495;49.922;7.966;2023-08-06T02:28:49;98869.88;;;15.12;100.00
70133;BME280;57495;49.922;7.966;2023-08-06T02:30:50;98869.16;;;14.89;100.00
70133;BME280;57495;49.922;7.966;2023-08-06T02:32:51;98862.94;;;14.89;100.00
70133;BME280;57495;49.922;7.966;2023-08-06T02:34:52;98865.22;;;14.85;100.00
70133;BME280;57495;49.922;7.966;2023-08-06T02:36:54;98871.22;;;14.87;100.00
70133;BME280;57495;49.922;7.966;2023-08-06T02:38:54;98866.59;;;14.75;100.00
70133;BME280;57495;49.922;7.966;2023-08-06T02:40:56;98868.22;;;14.69;100.00
70133;BME280;57495;49.922;7.966;2023-08-06T02:42:59;98864.69;;;14.68;100.00
70133;BME280;57495;49.922;7.966;2023-08-06T02:45:00;98861.41;;;14.73;100.00
70133;BME280;57495;49.922;7.966;2023-08-06T02:47:02;98859.19;;;14.83;100.00
70133;BME280;57495;49.922;7.966;2023-08-06T02:49:04;98858.81;;;14.86;100.00
70133;BME280;57495;49.922;7.966;2023-08-06T02:51:05;98856.75;;;14.95;100.00
70133;BME280;57495;49.922;7.966;2023-08-06T02:53:07;98855.13;;;14.94;100.00
70133;BME280;57495;49.922;7.966;2023-08-06T02:55:08;98848.53;;;15.03;100.00
70133;BME280;57495;49.922;7.966;2023-08-06T02:57:08;98845.66;;;15.12;100.00
70133;BME280;57495;49.922;7.966;2023-08-06T02:59:11;98850.81;;;15.06;100.00
70133;BME280;57495;49.922;7.966;2023-08-06T03:01:13;98847.94;;;15.15;100.00
70133;BME280;57495;49.922;7.966;2023-08-06T03:03:14;98847.75;;;15.16;100.00
70133;BME280;57495;49.922;7.966;2023-08-06T03:05:16;98843.16;;;15.10;100.00
70133;BME280;57495;49.922;7.966;2023-08-06T03:07:17;98835.06;;;15.03;100.00
70133;BME280;57495;49.922;7.966;2023-08-06T03:09:19;98841.03;;;14.99;100.00
70133;BME280;57495;49.922;7.966;2023-08-06T03:11:20;98838.34;;;14.99;100.00
70133;BME280;57495;49.922;7.966;2023-08-06T03:13:22;98838.56;;;15.04;100.00
70133;BME280;57495;49.922;7.966;2023-08-06T03:15:25;98833.44;;;15.09;100.00
70133;BME280;57495;49.922;7.966;2023-08-06T03:17:26;98827.00;;;15.10;100.00
70133;BME280;57495;49.922;7.966;2023-08-06T03:19:27;98832.38;;;15.10;100.00
70133;BME280;57495;49.922;7.966;2023-08-06T03:21:29;98825.50;;;15.01;100.00
70133;BME280;57495;49.922;7.966;2023-08-06T03:23:30;98820.34;;;15.06;100.00
70133;BME280;57495;49.922;7.966;2023-08-06T03:25:35;98815.78;;;15.00;100.00
70133;BME280;57495;49.922;7.966;2023-08-06T03:27:36;98813.88;;;14.87;100.00
70133;BME280;57495;49.922;7.966;2023-08-06T03:29:37;98814.06;;;14.79;100.00
70133;BME280;57495;49.922;7.966;2023-08-06T03:31:40;98814.41;;;14.69;100.00
70133;BME280;57495;49.922;7.966;2023-08-06T03:33:42;98825.34;;;14.67;100.00
70133;BME280;57495;49.922;7.966;2023-08-06T03:35:43;98817.09;;;14.69;100.00
70133;BME280;57495;49.922;7.966;2023-08-06T03:37:44;98815.22;;;14.63;100.00
70133;BME280;57495;49.922;7.966;2023-08-06T03:39:46;98820.41;;;14.71;100.00
70133;BME280;57495;49.922;7.966;2023-08-06T03:41:47;98812.28;;;14.58;100.00
70133;BME280;57495;49.922;7.966;2023-08-06T03:43:49;98822.53;;;14.76;100.00
70133;BME280;57495;49.922;7.966;2023-08-06T03:45:50;98815.91;;;14.78;100.00
70133;BME280;57495;49.922;7.966;2023-08-06T03:47:53;98814.69;;;14.81;100.00
70133;BME280;57495;49.922;7.966;2023-08-06T03:49:54;98811.09;;;14.67;100.00
70133;BME280;57495;49.922;7.966;2023-08-06T03:51:56;98809.66;;;14.71;100.00
70133;BME280;57495;49.922;7.966;2023-08-06T03:53:57;98810.59;;;14.57;100.00
70133;BME280;57495;49.922;7.966;2023-08-06T03:55:58;98802.72;;;14.55;100.00
70133;BME280;57495;49.922;7.966;2023-08-06T03:58:00;98805.41;;;14.55;100.00
70133;BME280;57495;49.922;7.966;2023-08-06T04:00:02;98814.69;;;14.53;100.00
70133;BME280;57495;49.922;7.966;2023-08-06T04:02:04;98808.28;;;14.54;100.00
70133;BME280;57495;49.922;7.966;2023-08-06T04:04:07;98808.16;;;14.62;100.00
70133;BME280;57495;49.922;7.966;2023-08-06T04:06:08;98805.41;;;14.55;100.00
70133;BME280;57495;49.922;7.966;2023-08-06T04:08:10;98799.84;;;14.57;100.00
70133;BME280;57495;49.922;7.966;2023-08-06T04:10:11;98807.13;;;14.63;100.00
70133;BME280;57495;49.922;7.966;2023-08-06T04:12:13;98814.31;;;14.56;100.00
70133;BME280;57495;49.922;7.966;2023-08-06T04:14:13;98812.63;;;14.55;100.00
70133;BME280;57495;49.922;7.966;2023-08-06T04:16:15;98802.78;;;14.62;100.00
70133;BME280;57495;49.922;7.966;2023-08-06T04:18:16;98807.25;;;14.55;100.00
70133;BME280;57495;49.922;7.966;2023-08-06T04:20:19;98806.88;;;14.58;100.00
70133;BME280;57495;49.922;7.966;2023-08-06T04:22:21;98803.09;;;14.52;100.00
70133;BME280;57495;49.922;7.966;2023-08-06T04:24:21;98801.81;;;14.41;100.00
70133;BME280;57495;49.922;7.966;2023-08-06T04:26:23;98810.34;;;14.52;100.00
70133;BME280;57495;49.922;7.966;2023-08-06T04:28:24;98806.41;;;14.47;100.00
70133;BME280;57495;49.922;7.966;2023-08-06T04:30:26;98808.06;;;14.48;100.00
70133;BME280;57495;49.922;7.966;2023-08-06T04:32:27;98804.28;;;14.43;100.00
70133;BME280;57495;49.922;7.966;2023-08-06T04:34:28;98809.25;;;14.39;100.00
70133;BME280;57495;49.922;7.966;2023-08-06T04:36:30;98806.59;;;14.46;100.00
70133;BME280;57495;49.922;7.966;2023-08-06T04:38:32;98810.47;;;14.37;100.00
70133;BME280;57495;49.922;7.966;2023-08-06T04:40:33;98802.41;;;14.37;100.00
70133;BME280;57495;49.922;7.966;2023-08-06T04:42:35;98800.94;;;14.34;100.00
70133;BME280;57495;49.922;7.966;2023-08-06T04:44:36;98804.69;;;14.40;100.00
70133;BME280;57495;49.922;7.966;2023-08-06T04:46:38;98800.53;;;14.37;100.00
70133;BME280;57495;49.922;7.966;2023-08-06T04:48:38;98797.66;;;14.39;100.00
70133;BME280;57495;49.922;7.966;2023-08-06T04:50:43;98794.91;;;14.32;100.00
70133;BME280;57495;49.922;7.966;2023-08-06T04:52:46;98796.84;;;14.45;100.00
70133;BME280;57495;49.922;7.966;2023-08-06T04:54:47;98798.72;;;14.44;100.00
70133;BME280;57495;49.922;7.966;2023-08-06T04:56:48;98802.22;;;14.38;100.00
70133;BME280;57495;49.922;7.966;2023-08-06T04:58:49;98799.47;;;14.31;100.00
70133;BME280;57495;49.922;7.966;2023-08-06T05:00:52;98793.09;;;14.39;100.00
70133;BME280;57495;49.922;7.966;2023-08-06T05:02:54;98791.91;;;14.48;100.00
70133;BME280;57495;49.922;7.966;2023-08-06T05:04:55;98793.91;;;14.40;100.00
70133;BME280;57495;49.922;7.966;2023-08-06T05:06:57;98799.16;;;14.48;100.00
70133;BME280;57495;49.922;7.966;2023-08-06T05:08:59;98798.97;;;14.49;100.00
70133;BME280;57495;49.922;7.966;2023-08-06T05:11:01;98798.97;;;14.49;100.00
70133;BME280;57495;49.922;7.966;2023-08-06T05:13:02;98791.03;;;14.41;100.00
70133;BME280;57495;49.922;7.966;2023-08-06T05:15:04;98800.28;;;14.32;100.00
70133;BME280;57495;49.922;7.966;2023-08-06T05:17:05;98790.22;;;14.41;100.00
70133;BME280;57495;49.922;7.966;2023-08-06T05:19:07;98794.84;;;14.19;100.00
70133;BME280;57495;49.922;7.966;2023-08-06T05:21:08;98798.13;;;14.14;100.00
70133;BME280;57495;49.922;7.966;2023-08-06T05:23:09;98795.44;;;14.14;100.00
70133;BME280;57495;49.922;7.966;2023-08-06T05:25:13;98798.06;;;14.07;100.00
70133;BME280;57495;49.922;7.966;2023-08-06T05:27:15;98803.44;;;14.07;100.00
70133;BME280;57495;49.922;7.966;2023-08-06T05:29:19;98798.69;;;14.09;100.00
70133;BME280;57495;49.922;7.966;2023-08-06T05:31:20;98804.88;;;14.03;100.00
70133;BME280;57495;49.922;7.966;2023-08-06T05:33:20;98806.06;;;14.01;100.00
70133;BME280;57495;49.922;7.966;2023-08-06T05:35:22;98798.25;;;14.06;100.00
70133;BME280;57495;49.922;7.966;2023-08-06T05:37:23;98811.66;;;13.99;100.00
70133;BME280;57495;49.922;7.966;2023-08-06T05:39:25;98804.25;;;14.01;100.00
70133;BME280;57495;49.922;7.966;2023-08-06T05:41:27;98802.31;;;13.95;100.00
70133;BME280;57495;49.922;7.966;2023-08-06T05:43:29;98805.25;;;14.00;100.00
70133;BME280;57495;49.922;7.966;2023-08-06T05:45:30;98805.44;;;13.99;100.00
70133;BME280;57495;49.922;7.966;2023-08-06T05:47:32;98810.78;;;13.92;100.00
70133;BME280;57495;49.922;7.966;2023-08-06T05:49:33;98805.41;;;13.92;100.00
70133;BME280;57495;49.922;7.966;2023-08-06T05:51:35;98808.72;;;13.94;100.00
70133;BME280;57495;49.922;7.966;2023-08-06T05:53:36;98813.06;;;13.95;100.00
70133;BME280;57495;49.922;7.966;2023-08-06T05:55:38;98805.63;;;13.97;100.00
70133;BME280;57495;49.922;7.966;2023-08-06T05:57:41;98807.31;;;13.98;100.00
70133;BME280;57495;49.922;7.966;2023-08-06T05:59:42;98805.00;;;13.95;100.00
70133;BME280;57495;49.922;7.966;2023-08-06T06:01:43;98807.69;;;13.95;100.00
70133;BME280;57495;49.922;7.966;2023-08-06T06:03:44;98801.75;;;14.00;100.00
70133;BME280;57495;49.922;7.966;2023-08-06T06:05:46;98807.88;;;13.93;100.00
70133;BME280;57495;49.922;7.966;2023-08-06T06:07:47;98805.63;;;13.97;100.00
70133;BME280;57495;49.922;7.966;2023-08-06T06:09:49;98807.50;;;13.97;100.00
70133;BME280;57495;49.922;7.966;2023-08-06T06:11:50;98806.03;;;13.94;100.00
70133;BME280;57495;49.922;7.966;2023-08-06T06:13:53;98808.47;;;13.89;100.00
70133;BME280;57495;49.922;7.966;2023-08-06T06:15:54;98810.38;;;13.95;100.00
70133;BME280;57495;49.922;7.966;2023-08-06T06:17:56;98814.28;;;13.92;100.00
70133;BME280;57495;49.922;7.966;2023-08-06T06:19:58;98814.59;;;14.04;100.00
70133;BME280;57495;49.922;7.966;2023-08-06T06:21:59;98823.28;;;14.06;100.00
70133;BME280;57495;49.922;7.966;2023-08-06T06:24:01;98822.31;;;14.14;100.00
70133;BME280;57495;49.922;7.966;2023-08-06T06:26:03;98821.16;;;14.23;100.00
70133;BME280;57495;49.922;7.966;2023-08-06T06:28:04;98827.78;;;14.27;100.00
70133;BME280;57495;49.922;7.966;2023-08-06T06:30:08;98819.56;;;14.36;100.00
70133;BME280;57495;49.922;7.966;2023-08-06T06:32:09;98819.97;;;14.33;100.00
70133;BME280;57495;49.922;7.966;2023-08-06T06:34:11;98832.38;;;14.34;100.00
70133;BME280;57495;49.922;7.966;2023-08-06T06:36:12;98833.19;;;14.34;100.00
70133;BME280;57495;49.922;7.966;2023-08-06T06:38:14;98834.06;;;14.41;100.00
70133;BME280;57495;49.922;7.966;2023-08-06T06:40:15;98841.13;;;14.42;100.00
70133;BME280;57495;49.922;7.966;2023-08-06T06:42:16;98828.31;;;14.44;100.00
70133;BME280;57495;49.922;7.966;2023-08-06T06:44:17;98834.75;;;14.50;100.00
70133;BME280;57495;49.922;7.966;2023-08-06T06:46:24;98829.63;;;14.55;100.00
70133;BME280;57495;49.922;7.966;2023-08-06T06:48:26;98821.38;;;14.57;100.00
70133;BME280;57495;49.922;7.966;2023-08-06T06:50:28;98834.22;;;14.61;100.00
70133;BME280;57495;49.922;7.966;2023-08-06T06:52:29;98831.72;;;14.60;100.00
70133;BME280;57495;49.922;7.966;2023-08-06T06:54:31;98833.00;;;14.64;100.00
70133;BME280;57495;49.922;7.966;2023-08-06T06:56:32;98830.31;;;14.64;100.00
70133;BME280;57495;49.922;7.966;2023-08-06T06:58:34;98825.78;;;14.64;100.00
70133;BME280;57495;49.922;7.966;2023-08-06T07:00:35;98829.91;;;14.67;100.00
70133;BME280;57495;49.922;7.966;2023-08-06T07:02:38;98829.72;;;14.68;100.00
70133;BME280;57495;49.922;7.966;2023-08-06T07:04:40;98833.53;;;14.87;100.00
70133;BME280;57495;49.922;7.966;2023-08-06T07:06:41;98829.81;;;14.88;100.00
70133;BME280;57495;49.922;7.966;2023-08-06T07:08:42;98834.63;;;15.00;100.00
70133;BME280;57495;49.922;7.966;2023-08-06T07:10:43;98824.69;;;14.94;100.00
70133;BME280;57495;49.922;7.966;2023-08-06T07:12:45;98833.59;;;15.01;100.00
70133;BME280;57495;49.922;7.966;2023-08-06T07:14:46;98830.69;;;14.96;100.00
70133;BME280;57495;49.922;7.966;2023-08-06T07:16:48;98831.16;;;15.13;100.00
70133;BME280;57495;49.922;7.966;2023-08-06T07:18:51;98826.78;;;15.05;100.00
70133;BME280;57495;49.922;7.966;2023-08-06T07:20:54;98824.50;;;15.02;100.00
70133;BME280;57495;49.922;7.966;2023-08-06T07:22:55;98827.56;;;14.99;100.00
70133;BME280;57495;49.922;7.966;2023-08-06T07:24:57;98831.94;;;15.00;100.00
70133;BME280;57495;49.922;7.966;2023-08-06T07:26:58;98832.56;;;15.02;100.00
70133;BME280;57495;49.922;7.966;2023-08-06T07:29:00;98831.13;;;15.06;100.00
70133;BME280;57495;49.922;7.966;2023-08-06T07:31:02;98827.84;;;15.11;100.00
70133;BME280;57495;49.922;7.966;2023-08-06T07:33:04;98828.44;;;15.06;100.00
70133;BME280;57495;49.922;7.966;2023-08-06T07:35:07;98827.00;;;15.10;100.00
70133;BME280;57495;49.922;7.966;2023-08-06T07:37:12;98824.38;;;15.30;100.00
70133;BME280;57495;49.922;7.966;2023-08-06T07:39:14;98828.38;;;15.61;100.00
70133;BME280;57495;49.922;7.966;2023-08-06T07:41:17;98828.44;;;15.88;100.00
70133;BME280;57495;49.922;7.966;2023-08-06T07:43:18;98827.59;;;16.00;100.00
70133;BME280;57495;49.922;7.966;2023-08-06T07:45:18;98828.44;;;16.08;100.00
70133;BME280;57495;49.922;7.966;2023-08-06T07:47:20;98830.28;;;16.00;100.00
70133;BME280;57495;49.922;7.966;2023-08-06T07:49:21;98831.97;;;16.01;100.00
70133;BME280;57495;49.922;7.966;2023-08-06T07:51:24;98823.66;;;16.10;100.00
70133;BME280;57495;49.922;7.966;2023-08-06T07:53:26;98821.81;;;16.03;100.00
70133;BME280;57495;49.922;7.966;2023-08-06T07:55:29;98817.22;;;16.04;100.00
70133;BME280;57495;49.922;7.966;2023-08-06T07:57:31;98815.34;;;16.04;100.00
70133;BME280;57495;49.922;7.966;2023-08-06T07:59:34;98813.31;;;16.07;100.00
70133;BME280;57495;49.922;7.966;2023-08-06T08:01:35;98815.97;;;16.20;100.00
70133;BME280;57495;49.922;7.966;2023-08-06T08:03:35;98812.22;;;16.21;100.00
70133;BME280;57495;49.922;7.966;2023-08-06T08:05:37;98813.47;;;16.32;100.00
70133;BME280;57495;49.922;7.966;2023-08-06T08:07:39;98812.03;;;16.29;100.00
70133;BME280;57495;49.922;7.966;2023-08-06T08:09:40;98805.81;;;16.29;100.00
70133;BME280;57495;49.922;7.966;2023-08-06T08:11:41;98803.44;;;16.59;100.00
70133;BME280;57495;49.922;7.966;2023-08-06T08:13:43;98800.91;;;16.77;100.00
70133;BME280;57495;49.922;7.966;2023-08-06T08:15:44;98796.78;;;16.61;100.00
70133;BME280;57495;49.922;7.966;2023-08-06T08:17:45;98799.22;;;16.76;100.00
70133;BME280;57495;49.922;7.966;2023-08-06T08:19:47;98803.22;;;16.67;100.00
70133;BME280;57495;49.922;7.966;2023-08-06T08:21:49;98797.63;;;16.62;100.00
70133;BME280;57495;49.922;7.966;2023-08-06T08:23:52;98805.47;;;16.84;100.00
70133;BME280;57495;49.922;7.966;2023-08-06T08:25:53;98802.13;;;16.81;100.00
70133;BME280;57495;49.922;7.966;2023-08-06T08:27:54;98793.84;;;16.90;100.00
70133;BME280;57495;49.922;7.966;2023-08-06T08:29:56;98789.59;;;17.00;100.00
70133;BME280;57495;49.922;7.966;2023-08-06T08:31:57;98790.50;;;16.81;100.00
70133;BME280;57495;49.922;7.966;2023-08-06T08:33:58;98789.34;;;16.50;100.00
70133;BME280;57495;49.922;7.966;2023-08-06T08:36:01;98802.69;;;16.12;100.00
70133;BME280;57495;49.922;7.966;2023-08-06T08:38:02;98796.72;;;16.03;100.00
70133;BME280;57495;49.922;7.966;2023-08-06T08:40:07;98800.63;;;16.00;100.00
70133;BME280;57495;49.922;7.966;2023-08-06T08:42:09;98806.41;;;15.71;100.00
70133;BME280;57495;49.922;7.966;2023-08-06T08:44:13;98801.28;;;15.82;100.00
70133;BME280;57495;49.922;7.966;2023-08-06T08:46:17;98817.25;;;15.77;100.00
70133;BME280;57495;49.922;7.966;2023-08-06T08:48:19;98812.03;;;15.89;100.00
70133;BME280;57495;49.922;7.966;2023-08-06T08:50:21;98816.41;;;15.97;100.00
70133;BME280;57495;49.922;7.966;2023-08-06T08:52:23;98808.72;;;16.07;100.00
70133;BME280;57495;49.922;7.966;2023-08-06T08:54:27;98816.00;;;16.07;100.00
70133;BME280;57495;49.922;7.966;2023-08-06T08:56:31;98808.72;;;16.07;100.00
70133;BME280;57495;49.922;7.966;2023-08-06T08:58:33;98810.16;;;16.10;100.00
70133;BME280;57495;49.922;7.966;2023-08-06T09:00:34;98806.22;;;16.19;100.00
70133;BME280;57495;49.922;7.966;2023-08-06T09:02:37;98816.41;;;16.23;100.00
70133;BME280;57495;49.922;7.966;2023-08-06T09:04:40;98811.00;;;16.17;100.00
70133;BME280;57495;49.922;7.966;2023-08-06T09:06:42;98812.66;;;16.18;100.00
70133;BME280;57495;49.922;7.966;2023-08-06T09:08:51;98818.44;;;16.28;100.00
70133;BME280;57495;49.922;7.966;2023-08-06T09:10:56;98815.50;;;16.50;100.00
70133;BME280;57495;49.922;7.966;2023-08-06T09:12:59;98818.41;;;16.55;100.00
70133;BME280;57495;49.922;7.966;2023-08-06T09:15:02;98813.84;;;16.55;100.00
70133;BME280;57495;49.922;7.966;2023-08-06T09:17:04;98824.03;;;16.47;100.00
70133;BME280;57495;49.922;7.966;2023-08-06T09:19:09;98820.72;;;16.45;100.00
70133;BME280;57495;49.922;7.966;2023-08-06T09:21:14;98825.31;;;16.31;100.00
70133;BME280;57495;49.922;7.966;2023-08-06T09:23:15;98824.66;;;16.35;100.00
70133;BME280;57495;49.922;7.966;2023-08-06T09:25:21;98822.78;;;16.36;100.00
70133;BME280;57495;49.922;7.966;2023-08-06T09:27:23;98827.16;;;16.43;100.00
70133;BME280;57495;49.922;7.966;2023-08-06T09:29:30;98819.66;;;16.59;100.00
70133;BME280;57495;49.922;7.966;2023-08-06T09:31:32;98825.25;;;16.64;100.00
70133;BME280;57495;49.922;7.966;2023-08-06T09:33:36;98828.59;;;16.53;100.00
70133;BME280;57495;49.922;7.966;2023-08-06T09:35:37;98828.78;;;16.58;100.00
70133;BME280;57495;49.922;7.966;2023-08-06T09:37:39;98823.81;;;16.41;100.00
70133;BME280;57495;49.922;7.966;2023-08-06T09:39:40;98832.97;;;16.40;100.00
70133;BME280;57495;49.922;7.966;2023-08-06T09:41:42;98834.63;;;16.41;100.00
70133;BME280;57495;49.922;7.966;2023-08-06T09:43:43;98831.31;;;16.53;100.00
70133;BME280;57495;49.922;7.966;2023-08-06T09:45:45;98834.63;;;16.41;100.00
70133;BME280;57495;49.922;7.966;2023-08-06T09:47:47;98842.09;;;16.39;100.00
70133;BME280;57495;49.922;7.966;2023-08-06T09:49:48;98844.19;;;16.37;100.00
70133;BME280;57495;49.922;7.966;2023-08-06T09:51:50;98841.28;;;16.46;100.00
70133;BME280;57495;49.922;7.966;2023-08-06T09:53:52;98834.63;;;16.41;100.00
70133;BME280;57495;49.922;7.966;2023-08-06T09:55:54;98845.00;;;16.51;100.00
70133;BME280;57495;49.922;7.966;2023-08-06T09:57:56;98841.44;;;16.64;100.00
70133;BME280;57495;49.922;7.966;2023-08-06T09:59:58;98846.59;;;16.79;100.00
70133;BME280;57495;49.922;7.966;2023-08-06T10:02:00;98847.66;;;16.85;100.00
70133;BME280;57495;49.922;7.966;2023-08-06T10:04:05;98844.69;;;16.99;100.00
70133;BME280;57495;49.922;7.966;2023-08-06T10:06:07;98849.00;;;17.07;100.00
70133;BME280;57495;49.922;7.966;2023-08-06T10:08:09;98844.47;;;17.01;100.00
70133;BME280;57495;49.922;7.966;2023-08-06T10:10:10;98838.66;;;16.97;100.00
70133;BME280;57495;49.922;7.966;2023-08-06T10:12:12;98840.63;;;17.29;100.00
70133;BME280;57495;49.922;7.966;2023-08-06T10:14:24;98843.06;;;17.37;100.00
70133;BME280;57495;49.922;7.966;2023-08-06T10:16:27;98855.00;;;17.54;100.00
70133;BME280;57495;49.922;7.966;2023-08-06T10:18:30;98854.16;;;17.61;99.87
70133;BME280;57495;49.922;7.966;2023-08-06T10:20:33;98859.03;;;17.77;100.00
70133;BME280;57495;49.922;7.966;2023-08-06T10:22:35;98852.47;;;17.59;96.93
70133;BME280;57495;49.922;7.966;2023-08-06T10:24:47;98871.69;;;17.45;96.56
70133;BME280;57495;49.922;7.966;2023-08-06T10:26:48;98873.16;;;17.47;96.75
70133;BME280;57495;49.922;7.966;2023-08-06T10:28:50;98880.88;;;17.44;96.25
70133;BME280;57495;49.922;7.966;2023-08-06T10:30:53;98878.78;;;17.46;96.01
70133;BME280;57495;49.922;7.966;2023-08-06T10:32:55;98874.84;;;17.42;96.58
70133;BME280;57495;49.922;7.966;2023-08-06T10:35:01;98893.41;;;17.25;95.52
70133;BME280;57495;49.922;7.966;2023-08-06T10:37:03;98899.41;;;17.33;97.78
70133;BME280;57495;49.922;7.966;2023-08-06T10:39:04;98900.47;;;17.32;100.00